createdAt,value
2022-09-12T00:01:12.238Z,96514.13
2022-09-12T00:02:13.859Z,96508.69
2022-09-12T00:03:15.536Z,96510.66
2022-09-12T00:04:17.144Z,96514.22
2022-09-12T00:05:18.657Z,96511.50
2022-09-12T00:06:29.138Z,96516.59
2022-09-12T00:07:30.657Z,96525.16
2022-09-12T00:08:32.186Z,96518.19
2022-09-12T00:09:33.806Z,96518.97
2022-09-12T00:10:41.433Z,96519.34
2022-09-12T00:11:45.939Z,96509.28
2022-09-12T00:12:47.477Z,96513.97
2022-09-12T00:13:49.370Z,96517.84
2022-09-12T00:14:51.005Z,96513.59
2022-09-12T00:15:52.625Z,96512.03
2022-09-12T00:16:58.403Z,96515.13
2022-09-12T00:17:59.887Z,96513.59
2022-09-12T00:19:02.573Z,96512.84
2022-09-12T00:20:07.504Z,96511.25
2022-09-12T00:21:09.114Z,96511.25
2022-09-12T00:22:10.626Z,96509.72
2022-09-12T00:23:12.564Z,96508.19
2022-09-12T00:24:14.066Z,96512.44
2022-09-12T00:25:15.800Z,96517.47
2022-09-12T00:26:19.782Z,96512.41
2022-09-12T00:27:21.305Z,96514.75
2022-09-12T00:28:22.876Z,96520.56
2022-09-12T00:29:24.430Z,96522.50
2022-09-12T00:30:26.046Z,96519.00
2022-09-12T00:31:28.526Z,96517.09
2022-09-12T00:32:30.078Z,96517.47
2022-09-12T00:33:32.205Z,96520.97
2022-09-12T00:34:33.783Z,96515.91
2022-09-12T00:35:35.341Z,96513.56
2022-09-12T00:36:36.954Z,96522.88
2022-09-12T00:37:38.465Z,96514.34
2022-09-12T00:38:42.190Z,96510.47
2022-09-12T00:39:43.961Z,96524.41
2022-09-12T00:40:46.746Z,96510.81
2022-09-12T00:41:48.288Z,96515.88
2022-09-12T00:42:49.827Z,96513.94
2022-09-12T00:43:54.925Z,96520.53
2022-09-12T00:44:56.639Z,96521.31
2022-09-12T00:46:01.961Z,96515.13
2022-09-12T00:47:10.505Z,96509.28
2022-09-12T00:48:27.625Z,96517.41
2022-09-12T00:49:49.735Z,96508.91
2022-09-12T00:50:51.318Z,96505.81
2022-09-12T00:51:57.726Z,96508.16
2022-09-12T00:53:07.023Z,96507.41
2022-09-12T00:54:13.868Z,96508.56
2022-09-12T00:55:26.362Z,96513.56
2022-09-12T00:56:28.946Z,96506.59
2022-09-12T00:57:35.953Z,96513.59
2022-09-12T00:58:43.279Z,96509.72
2022-09-12T00:59:50.543Z,96505.06
2022-09-12T01:00:52.633Z,96506.63
2022-09-12T01:01:54.890Z,96505.84
2022-09-12T01:03:09.073Z,96508.94
2022-09-12T01:04:12.900Z,96502.34
2022-09-12T01:05:15.164Z,96501.19
2022-09-12T01:06:22.846Z,96508.94
2022-09-12T01:07:24.494Z,96511.66
2022-09-12T01:08:28.577Z,96517.84
2022-09-12T01:09:30.106Z,96511.66
2022-09-12T01:10:34.615Z,96507.41
2022-09-12T01:11:39.452Z,96511.28
2022-09-12T01:12:43.182Z,96515.16
2022-09-12T01:13:45.567Z,96515.16
2022-09-12T01:14:47.100Z,96517.47
2022-09-12T01:15:48.629Z,96507.38
2022-09-12T01:16:51.260Z,96508.94
2022-09-12T01:18:08.857Z,96509.72
2022-09-12T01:19:29.192Z,96510.09
2022-09-12T01:20:36.653Z,96509.72
2022-09-12T01:21:56.987Z,96507.75
2022-09-12T01:23:31.204Z,96507.75
2022-09-12T01:25:03.518Z,96505.84
2022-09-12T01:26:22.935Z,96503.53
2022-09-12T01:28:09.396Z,96511.66
2022-09-12T01:29:10.885Z,96505.06
2022-09-12T01:30:24.724Z,96508.94
2022-09-12T01:31:57.242Z,96511.25
2022-09-12T01:33:23.907Z,96506.63
2022-09-12T01:34:55.792Z,96511.28
2022-09-12T01:36:11.456Z,96511.25
2022-09-12T01:37:42.308Z,96513.16
2022-09-12T01:39:02.093Z,96512.69
2022-09-12T01:40:15.290Z,96512.69
2022-09-12T01:41:19.684Z,96504.13
2022-09-12T01:42:31.773Z,96506.03
2022-09-12T01:43:50.452Z,96506.06
2022-09-12T01:44:51.984Z,96507.97
2022-09-12T01:46:05.198Z,96513.44
2022-09-12T01:47:11.583Z,96512.63
2022-09-12T01:48:20.871Z,96510.22
2022-09-12T01:49:52.435Z,96505.59
2022-09-12T01:51:08.841Z,96511.75
2022-09-12T01:52:28.543Z,96508.66
2022-09-12T01:53:37.319Z,96499.75
2022-09-12T01:54:44.922Z,96496.28
2022-09-12T01:55:52.571Z,96498.56
2022-09-12T01:56:57.966Z,96495.03
2022-09-12T01:58:09.969Z,96483.81
2022-09-12T01:59:18.900Z,96494.59
2022-09-12T02:00:20.632Z,96492.66
2022-09-12T02:01:27.976Z,96488.09
2022-09-12T02:02:40.957Z,96486.22
2022-09-12T02:03:54.763Z,96492.47
2022-09-12T02:05:20.115Z,96481.22
2022-09-12T02:06:33.499Z,96485.13
2022-09-12T02:07:50.039Z,96487.44
2022-09-12T02:08:54.907Z,96488.25
2022-09-12T02:10:08.406Z,96491.38
2022-09-12T02:11:12.212Z,96494.88
2022-09-12T02:12:17.677Z,96492.53
2022-09-12T02:13:32.867Z,96497.97
2022-09-12T02:14:40.277Z,96500.25
2022-09-12T02:15:49.029Z,96499.47
2022-09-12T02:16:58.906Z,96507.66
2022-09-12T02:18:04.675Z,96505.34
2022-09-12T02:19:12.761Z,96501.47
2022-09-12T02:20:49.227Z,96498.78
2022-09-12T02:21:58.200Z,96505.00
2022-09-12T02:23:00.781Z,96508.09
2022-09-12T02:24:05.709Z,96506.94
2022-09-12T02:25:11.563Z,96511.22
2022-09-12T02:26:23.105Z,96510.81
2022-09-12T02:27:46.935Z,96510.00
2022-09-12T02:28:48.738Z,96516.97
2022-09-12T02:29:50.853Z,96513.47
2022-09-12T02:31:01.326Z,96513.06
2022-09-12T02:32:16.131Z,96514.25
2022-09-12T02:33:27.671Z,96515.81
2022-09-12T02:34:51.373Z,96516.59
2022-09-12T02:36:02.466Z,96519.28
2022-09-12T02:37:39.367Z,96518.91
2022-09-12T02:38:46.410Z,96518.13
2022-09-12T02:39:48.098Z,96519.28
2022-09-12T02:40:49.686Z,96525.91
2022-09-12T02:41:52.409Z,96515.06
2022-09-12T02:42:53.930Z,96521.59
2022-09-12T02:43:56.021Z,96516.97
2022-09-12T02:44:58.624Z,96510.75
2022-09-12T02:46:00.300Z,96516.59
2022-09-12T02:47:14.196Z,96511.91
2022-09-12T02:48:20.941Z,96514.25
2022-09-12T02:49:22.994Z,96508.78
2022-09-12T02:50:24.965Z,96517.72
2022-09-12T02:51:27.336Z,96509.19
2022-09-12T02:52:29.606Z,96507.97
2022-09-12T02:53:31.406Z,96511.84
2022-09-12T02:54:33.366Z,96509.50
2022-09-12T02:55:37.120Z,96511.06
2022-09-12T02:56:42.122Z,96510.28
2022-09-12T02:57:43.759Z,96511.00
2022-09-12T02:58:46.276Z,96518.00
2022-09-12T02:59:49.454Z,96512.94
2022-09-12T03:01:12.314Z,96520.69
2022-09-12T03:02:39.589Z,96510.63
2022-09-12T03:04:02.961Z,96514.09
2022-09-12T03:05:13.495Z,96513.25
2022-09-12T03:06:24.168Z,96519.38
2022-09-12T03:07:39.003Z,96515.44
2022-09-12T03:08:43.408Z,96510.81
2022-09-12T03:10:17.011Z,96513.53
2022-09-12T03:11:54.822Z,96511.59
2022-09-12T03:13:21.847Z,96513.06
2022-09-12T03:14:50.320Z,96518.50
2022-09-12T03:15:51.773Z,96517.63
2022-09-12T03:17:13.240Z,96519.91
2022-09-12T03:18:40.244Z,96518.69
2022-09-12T03:20:03.334Z,96523.28
2022-09-12T03:21:13.106Z,96512.81
2022-09-12T03:22:23.369Z,96515.50
2022-09-12T03:23:43.040Z,96514.34
2022-09-12T03:25:07.850Z,96518.19
2022-09-12T03:26:31.654Z,96513.50
2022-09-12T03:27:59.140Z,96517.31
2022-09-12T03:29:03.918Z,96518.06
2022-09-12T03:30:06.319Z,96504.91
2022-09-12T03:31:18.969Z,96513.34
2022-09-12T03:32:20.504Z,96511.00
2022-09-12T03:33:24.487Z,96511.00
2022-09-12T03:34:27.842Z,96511.38
2022-09-12T03:35:30.810Z,96511.38
2022-09-12T03:36:32.417Z,96514.09
2022-09-12T03:37:34.044Z,96510.56
2022-09-12T03:38:35.626Z,96520.25
2022-09-12T03:39:37.269Z,96515.97
2022-09-12T03:40:39.455Z,96528.69
2022-09-12T03:41:41.000Z,96517.09
2022-09-12T03:42:42.601Z,96523.66
2022-09-12T03:43:44.852Z,96527.13
2022-09-12T03:44:46.428Z,96527.16
2022-09-12T03:45:53.483Z,96522.91
2022-09-12T03:46:55.256Z,96521.81
2022-09-12T03:47:57.027Z,96527.25
2022-09-12T03:48:58.582Z,96527.69
2022-09-12T03:50:00.197Z,96532.75
2022-09-12T03:51:05.850Z,96530.50
2022-09-12T03:52:07.443Z,96525.88
2022-09-12T03:53:08.952Z,96529.38
2022-09-12T03:54:11.262Z,96526.34
2022-09-12T03:55:12.776Z,96529.81
2022-09-12T03:56:14.737Z,96525.16
2022-09-12T03:57:16.316Z,96528.31
2022-09-12T03:58:17.849Z,96531.75
2022-09-12T03:59:19.425Z,96526.41
2022-09-12T04:00:21.775Z,96528.31
2022-09-12T04:01:24.213Z,96528.28
2022-09-12T04:02:25.840Z,96533.66
2022-09-12T04:03:27.405Z,96529.69
2022-09-12T04:04:28.961Z,96527.34
2022-09-12T04:05:30.484Z,96529.16
2022-09-12T04:06:32.251Z,96532.53
2022-09-12T04:07:33.827Z,96537.06
2022-09-12T04:08:36.573Z,96530.06
2022-09-12T04:09:38.303Z,96537.47
2022-09-12T04:10:39.890Z,96531.72
2022-09-12T04:11:41.413Z,96537.13
2022-09-12T04:12:43.145Z,96534.03
2022-09-12T04:13:46.246Z,96531.41
2022-09-12T04:14:48.132Z,96541.53
2022-09-12T04:15:56.888Z,96539.72
2022-09-12T04:16:58.479Z,96535.09
2022-09-12T04:18:05.065Z,96546.69
2022-09-12T04:19:07.388Z,96542.88
2022-09-12T04:20:09.111Z,96541.31
2022-09-12T04:21:13.739Z,96550.56
2022-09-12T04:22:15.331Z,96548.66
2022-09-12T04:23:17.090Z,96554.16
2022-09-12T04:24:18.688Z,96543.00
2022-09-12T04:25:20.235Z,96550.41
2022-09-12T04:26:22.078Z,96549.25
2022-09-12T04:27:23.583Z,96556.16
2022-09-12T04:28:26.381Z,96555.81
2022-09-12T04:29:28.022Z,96547.66
2022-09-12T04:30:29.623Z,96545.34
2022-09-12T04:31:31.169Z,96555.34
2022-09-12T04:32:32.767Z,96556.84
2022-09-12T04:33:35.738Z,96562.31
2022-09-12T04:34:37.231Z,96559.31
2022-09-12T04:35:38.880Z,96561.31
2022-09-12T04:36:40.455Z,96561.66
2022-09-12T04:37:41.972Z,96565.59
2022-09-12T04:38:45.351Z,96561.31
2022-09-12T04:39:49.293Z,96560.94
2022-09-12T04:40:51.028Z,96561.66
2022-09-12T04:41:52.571Z,96561.31
2022-09-12T04:42:56.020Z,96567.13
2022-09-12T04:44:02.192Z,96576.06
2022-09-12T04:45:04.076Z,96569.56
2022-09-12T04:46:11.146Z,96571.91
2022-09-12T04:47:12.677Z,96578.03
2022-09-12T04:48:14.966Z,96582.69
2022-09-12T04:49:17.447Z,96581.13
2022-09-12T04:50:19.523Z,96585.03
2022-09-12T04:51:27.965Z,96583.53
2022-09-12T04:52:29.575Z,96585.16
2022-09-12T04:53:31.075Z,96587.91
2022-09-12T04:54:32.731Z,96587.97
2022-09-12T04:55:35.601Z,96593.03
2022-09-12T04:56:42.286Z,96589.59
2022-09-12T04:57:43.830Z,96587.75
2022-09-12T04:58:45.849Z,96587.41
2022-09-12T04:59:47.370Z,96586.31
2022-09-12T05:00:48.997Z,96591.34
2022-09-12T05:01:50.589Z,96582.84
2022-09-12T05:02:52.219Z,96591.81
2022-09-12T05:03:54.982Z,96589.06
2022-09-12T05:04:56.505Z,96593.69
2022-09-12T05:05:58.020Z,96593.28
2022-09-12T05:06:59.974Z,96597.94
2022-09-12T05:08:01.681Z,96595.59
2022-09-12T05:09:06.136Z,96602.91
2022-09-12T05:10:08.387Z,96601.72
2022-09-12T05:11:16.346Z,96602.13
2022-09-12T05:12:17.890Z,96605.66
2022-09-12T05:13:19.412Z,96608.31
2022-09-12T05:14:20.929Z,96615.63
2022-09-12T05:15:22.473Z,96614.88
2022-09-12T05:16:25.930Z,96608.72
2022-09-12T05:17:30.024Z,96608.75
2022-09-12T05:18:33.811Z,96614.94
2022-09-12T05:19:35.666Z,96608.81
2022-09-12T05:20:37.528Z,96613.53
2022-09-12T05:21:39.116Z,96612.81
2022-09-12T05:22:40.724Z,96614.34
2022-09-12T05:23:42.558Z,96616.28
2022-09-12T05:24:49.834Z,96615.13
2022-09-12T05:25:53.059Z,96611.25
2022-09-12T05:26:54.728Z,96612.03
2022-09-12T05:27:56.790Z,96616.72
2022-09-12T05:28:58.642Z,96608.59
2022-09-12T05:30:00.279Z,96611.69
2022-09-12T05:31:04.955Z,96619.06
2022-09-12T05:32:06.507Z,96617.88
2022-09-12T05:33:08.077Z,96613.59
2022-09-12T05:34:10.209Z,96615.50
2022-09-12T05:35:12.237Z,96611.94
2022-09-12T05:36:17.836Z,96615.38
2022-09-12T05:37:19.352Z,96610.63
2022-09-12T05:38:20.899Z,96615.28
2022-09-12T05:39:22.449Z,96606.78
2022-09-12T05:40:24.037Z,96611.09
2022-09-12T05:41:29.536Z,96606.44
2022-09-12T05:42:31.115Z,96611.53
2022-09-12T05:43:33.944Z,96604.91
2022-09-12T05:44:35.490Z,96603.34
2022-09-12T05:45:37.077Z,96607.22
2022-09-12T05:46:40.990Z,96601.78
2022-09-12T05:47:43.880Z,96603.03
2022-09-12T05:48:47.272Z,96601.50
2022-09-12T05:49:51.269Z,96596.13
2022-09-12T05:50:52.774Z,96598.84
2022-09-12T05:51:54.317Z,96604.31
2022-09-12T05:52:57.545Z,96602.00
2022-09-12T05:54:00.883Z,96603.16
2022-09-12T05:55:02.735Z,96598.88
2022-09-12T05:56:15.791Z,96606.63
2022-09-12T05:57:18.324Z,96611.66
2022-09-12T05:58:20.519Z,96599.63
2022-09-12T05:59:24.039Z,96602.75
2022-09-12T06:00:25.607Z,96597.31
2022-09-12T06:01:28.949Z,96609.72
2022-09-12T06:02:30.518Z,96604.28
2022-09-12T06:03:32.076Z,96605.78
2022-09-12T06:04:33.593Z,96606.56
2022-09-12T06:05:35.103Z,96601.91
2022-09-12T06:06:41.545Z,96601.13
2022-09-12T06:07:43.094Z,96610.41
2022-09-12T06:08:47.827Z,96605.72
2022-09-12T06:09:49.587Z,96598.75
2022-09-12T06:10:51.112Z,96606.53
2022-09-12T06:11:52.763Z,96597.16
2022-09-12T06:12:54.276Z,96605.31
2022-09-12T06:13:57.619Z,96602.56
2022-09-12T06:14:59.194Z,96592.47
2022-09-12T06:16:05.341Z,96586.25
2022-09-12T06:17:06.854Z,96587.78
2022-09-12T06:18:08.356Z,96595.56
2022-09-12T06:19:21.605Z,96587.41
2022-09-12T06:20:23.184Z,96585.47
2022-09-12T06:21:26.520Z,96573.81
2022-09-12T06:22:28.218Z,96588.97
2022-09-12T06:23:30.268Z,96589.34
2022-09-12T06:24:32.437Z,96586.22
2022-09-12T06:25:34.069Z,96593.63
2022-09-12T06:26:36.463Z,96585.75
2022-09-12T06:27:37.971Z,96590.38
2022-09-12T06:28:42.294Z,96581.81
2022-09-12T06:29:43.845Z,96584.50
2022-09-12T06:30:45.449Z,96589.91
2022-09-12T06:31:47.059Z,96585.25
2022-09-12T06:32:48.590Z,96582.84
2022-09-12T06:33:52.010Z,96582.00
2022-09-12T06:34:53.574Z,96582.78
2022-09-12T06:35:55.069Z,96581.28
2022-09-12T06:36:56.596Z,96561.91
2022-09-12T06:37:58.095Z,96573.66
2022-09-12T06:39:02.306Z,96580.66
2022-09-12T06:40:04.018Z,96577.94
2022-09-12T06:41:07.604Z,96585.28
2022-09-12T06:42:09.321Z,96580.59
2022-09-12T06:43:14.056Z,96578.59
2022-09-12T06:44:23.068Z,96582.09
2022-09-12T06:45:26.052Z,96584.44
2022-09-12T06:46:28.211Z,96582.47
2022-09-12T06:47:30.237Z,96578.16
2022-09-12T06:48:31.797Z,96577.38
2022-09-12T06:49:33.769Z,96585.09
2022-09-12T06:50:35.366Z,96570.28
2022-09-12T06:51:37.174Z,96570.25
2022-09-12T06:52:38.855Z,96571.06
2022-09-12T06:53:41.207Z,96576.09
2022-09-12T06:54:42.731Z,96577.25
2022-09-12T06:55:44.231Z,96567.97
2022-09-12T06:56:45.776Z,96582.72
2022-09-12T06:57:47.678Z,96584.69
2022-09-12T06:58:51.491Z,96583.44
2022-09-12T06:59:53.264Z,96574.44
2022-09-12T07:01:05.893Z,96569.34
2022-09-12T07:02:09.271Z,96574.81
2022-09-12T07:03:11.095Z,96577.91
2022-09-12T07:04:12.689Z,96572.88
2022-09-12T07:05:15.163Z,96580.13
2022-09-12T07:06:19.129Z,96580.00
2022-09-12T07:07:20.657Z,96571.44
2022-09-12T07:08:22.174Z,96583.50
2022-09-12T07:09:23.724Z,96578.44
2022-09-12T07:10:25.250Z,96586.94
2022-09-12T07:11:30.551Z,96578.31
2022-09-12T07:12:32.140Z,96580.28
2022-09-12T07:13:33.765Z,96584.50
2022-09-12T07:14:35.380Z,96576.34
2022-09-12T07:15:36.980Z,96574.41
2022-09-12T07:16:38.776Z,96574.53
2022-09-12T07:17:41.553Z,96578.00
2022-09-12T07:18:43.684Z,96582.97
2022-09-12T07:19:45.248Z,96590.66
2022-09-12T07:20:46.819Z,96572.34
2022-09-12T07:21:48.371Z,96578.28
2022-09-12T07:22:50.763Z,96582.63
2022-09-12T07:23:52.758Z,96571.28
2022-09-12T07:24:55.729Z,96569.00
2022-09-12T07:25:59.336Z,96575.16
2022-09-12T07:27:00.874Z,96583.34
2022-09-12T07:28:02.582Z,96585.28
2022-09-12T07:29:32.387Z,96572.88
2022-09-12T07:30:26.766Z,96573.66
2022-09-12T07:31:29.234Z,96567.47
2022-09-12T07:32:30.884Z,96583.41
2022-09-12T07:33:32.662Z,96572.00
2022-09-12T07:34:34.951Z,96582.81
2022-09-12T07:35:37.095Z,96590.41
2022-09-12T07:36:39.315Z,96588.75
2022-09-12T07:37:40.820Z,96587.16
2022-09-12T07:38:44.016Z,96585.06
2022-09-12T07:39:45.661Z,96571.50
2022-09-12T07:40:47.328Z,96585.53
2022-09-12T07:41:48.871Z,96582.16
2022-09-12T07:42:50.382Z,96578.25
2022-09-12T07:43:59.669Z,96595.84
2022-09-12T07:45:01.160Z,96576.78
2022-09-12T07:46:02.721Z,96582.00
2022-09-12T07:47:04.825Z,96582.47
2022-09-12T07:48:06.379Z,96585.75
2022-09-12T07:49:08.590Z,96590.03
2022-09-12T07:50:10.293Z,96581.34
2022-09-12T07:51:12.334Z,96591.41
2022-09-12T07:52:13.859Z,96598.66
2022-09-12T07:53:15.973Z,96589.56
2022-09-12T07:54:17.972Z,96584.88
2022-09-12T07:55:20.069Z,96586.88
2022-09-12T07:56:24.049Z,96581.88
2022-09-12T07:57:27.729Z,96587.47
2022-09-12T07:58:30.362Z,96594.53
2022-09-12T07:59:51.607Z,96576.94
2022-09-12T08:00:53.637Z,96574.56
2022-09-12T08:01:55.166Z,96576.63
2022-09-12T08:02:56.790Z,96586.38
2022-09-12T08:04:00.015Z,96578.13
2022-09-12T08:05:02.525Z,96586.63
2022-09-12T08:06:09.788Z,96586.63
2022-09-12T08:07:12.076Z,96573.94
2022-09-12T08:08:13.819Z,96570.09
2022-09-12T08:09:17.430Z,96581.84
2022-09-12T08:10:18.937Z,96567.47
2022-09-12T08:11:22.310Z,96582.28
2022-09-12T08:12:23.871Z,96582.19
2022-09-12T08:13:27.013Z,96592.53
2022-09-12T08:14:29.322Z,96573.28
2022-09-12T08:15:31.429Z,96585.72
2022-09-12T08:16:33.768Z,96582.56
2022-09-12T08:17:35.277Z,96597.28
2022-09-12T08:18:37.146Z,96581.53
2022-09-12T08:19:38.877Z,96582.22
2022-09-12T08:20:40.381Z,96587.69
2022-09-12T08:21:41.913Z,96581.53
2022-09-12T08:22:43.822Z,96576.91
2022-09-12T08:23:46.024Z,96583.56
2022-09-12T08:24:48.512Z,96579.34
2022-09-12T08:25:50.156Z,96582.53
2022-09-12T08:26:51.884Z,96589.44
2022-09-12T08:27:53.381Z,96587.09
2022-09-12T08:28:55.360Z,96578.06
2022-09-12T08:29:56.882Z,96575.22
2022-09-12T08:31:03.695Z,96583.03
2022-09-12T08:32:05.501Z,96581.44
2022-09-12T08:33:07.897Z,96580.72
2022-09-12T08:34:09.809Z,96573.63
2022-09-12T08:35:11.920Z,96570.44
2022-09-12T08:36:15.101Z,96576.94
2022-09-12T08:37:16.606Z,96570.91
2022-09-12T08:38:19.692Z,96559.22
2022-09-12T08:39:22.012Z,96568.78
2022-09-12T08:40:23.643Z,96564.06
2022-09-12T08:41:44.718Z,96564.69
2022-09-12T08:43:18.331Z,96544.38
2022-09-12T08:44:48.277Z,96558.81
2022-09-12T08:45:57.777Z,96555.31
2022-09-12T08:47:21.184Z,96560.41
2022-09-12T08:48:22.779Z,96559.22
2022-09-12T08:49:31.105Z,96550.63
2022-09-12T08:50:32.699Z,96552.97
2022-09-12T08:51:35.740Z,96557.94
2022-09-12T08:53:02.433Z,96556.78
2022-09-12T08:54:06.297Z,96560.22
2022-09-12T08:55:24.440Z,96549.63
2022-09-12T08:56:31.836Z,96555.84
2022-09-12T08:57:33.693Z,96523.63
2022-09-12T08:58:40.324Z,96545.56
2022-09-12T08:59:44.954Z,96542.38
2022-09-12T09:01:04.412Z,96553.56
2022-09-12T09:02:42.149Z,96535.72
2022-09-12T09:03:55.316Z,96550.22
2022-09-12T09:05:04.793Z,96550.56
2022-09-12T09:06:08.864Z,96544.16
2022-09-12T09:07:54.818Z,96537.06
2022-09-12T09:09:31.748Z,96545.53
2022-09-12T09:11:08.765Z,96544.94
2022-09-12T09:12:39.940Z,96523.03
2022-09-12T09:14:09.064Z,96544.81
2022-09-12T09:15:50.755Z,96539.97
2022-09-12T09:16:54.020Z,96542.34
2022-09-12T09:18:02.075Z,96530.09
2022-09-12T09:19:18.717Z,96529.28
2022-09-12T09:20:22.397Z,96533.91
2022-09-12T09:21:32.558Z,96530.06
2022-09-12T09:22:45.933Z,96535.84
2022-09-12T09:23:55.187Z,96543.28
2022-09-12T09:25:02.450Z,96536.84
2022-09-12T09:26:10.628Z,96529.03
2022-09-12T09:27:41.557Z,96538.66
2022-09-12T09:28:43.301Z,96537.19
2022-09-12T09:29:50.389Z,96537.00
2022-09-12T09:30:52.664Z,96536.34
2022-09-12T09:31:57.864Z,96537.47
2022-09-12T09:33:03.102Z,96534.25
2022-09-12T09:34:13.666Z,96539.38
2022-09-12T09:35:22.144Z,96539.25
2022-09-12T09:36:42.037Z,96526.09
2022-09-12T09:37:58.558Z,96535.16
2022-09-12T09:39:17.445Z,96533.91
2022-09-12T09:40:27.538Z,96522.38
2022-09-12T09:42:08.794Z,96531.94
2022-09-12T09:43:23.823Z,96543.38
2022-09-12T09:44:29.188Z,96526.00
2022-09-12T09:45:31.383Z,96524.47
2022-09-12T09:46:33.621Z,96526.34
2022-09-12T09:47:35.230Z,96524.09
2022-09-12T09:48:40.611Z,96517.72
2022-09-12T09:49:42.459Z,96525.06
2022-09-12T09:50:45.967Z,96526.63
2022-09-12T09:51:48.237Z,96509.72
2022-09-12T09:52:52.126Z,96523.03
2022-09-12T09:54:01.762Z,96510.63
2022-09-12T09:55:05.571Z,96526.91
2022-09-12T09:56:40.024Z,96526.22
2022-09-12T09:57:44.601Z,96520.44
2022-09-12T09:58:46.303Z,96522.72
2022-09-12T09:59:48.403Z,96519.03
2022-09-12T10:00:52.716Z,96519.75
2022-09-12T10:02:26.591Z,96510.94
2022-09-12T10:03:34.237Z,96524.94
2022-09-12T10:04:41.706Z,96531.41
2022-09-12T10:05:52.092Z,96526.13
2022-09-12T10:06:57.696Z,96518.41
2022-09-12T10:07:59.341Z,96526.63
2022-09-12T10:09:07.973Z,96521.50
2022-09-12T10:10:22.888Z,96520.75
2022-09-12T10:11:28.461Z,96527.09
2022-09-12T10:12:29.988Z,96529.63
2022-09-12T10:13:41.890Z,96527.97
2022-09-12T10:14:43.593Z,96532.78
2022-09-12T10:16:00.326Z,96526.41
2022-09-12T10:17:04.602Z,96531.31
2022-09-12T10:18:06.197Z,96525.72
2022-09-12T10:19:21.789Z,96526.28
2022-09-12T10:20:37.791Z,96534.03
2022-09-12T10:21:46.025Z,96529.84
2022-09-12T10:22:48.414Z,96523.84
2022-09-12T10:24:00.974Z,96528.66
2022-09-12T10:25:10.175Z,96523.38
2022-09-12T10:26:15.217Z,96528.22
2022-09-12T10:27:21.548Z,96527.25
2022-09-12T10:28:29.699Z,96517.66
2022-09-12T10:29:34.465Z,96510.03
2022-09-12T10:30:36.173Z,96510.59
2022-09-12T10:31:49.851Z,96522.63
2022-09-12T10:32:53.229Z,96515.94
2022-09-12T10:33:57.773Z,96518.94
2022-09-12T10:35:02.541Z,96517.25
2022-09-12T10:36:04.271Z,96520.75
2022-09-12T10:37:08.584Z,96514.41
2022-09-12T10:38:32.258Z,96513.06
2022-09-12T10:39:36.324Z,96513.97
2022-09-12T10:40:44.010Z,96532.22
2022-09-12T10:41:46.956Z,96518.25
2022-09-12T10:42:57.363Z,96511.75
2022-09-12T10:44:26.350Z,96519.25
2022-09-12T10:45:32.242Z,96519.34
2022-09-12T10:46:33.760Z,96524.88
2022-09-12T10:47:37.983Z,96518.19
2022-09-12T10:48:39.518Z,96532.94
2022-09-12T10:49:41.115Z,96523.19
2022-09-12T10:50:43.454Z,96529.34
2022-09-12T10:51:45.040Z,96523.38
2022-09-12T10:52:46.641Z,96526.81
2022-09-12T10:53:48.239Z,96523.81
2022-09-12T10:54:54.503Z,96525.41
2022-09-12T10:56:03.096Z,96528.84
2022-09-12T10:57:04.566Z,96526.66
2022-09-12T10:58:14.924Z,96523.84
2022-09-12T10:59:22.233Z,96528.22
2022-09-12T11:00:27.672Z,96523.53
2022-09-12T11:01:32.317Z,96528.13
2022-09-12T11:02:55.981Z,96518.41
2022-09-12T11:03:57.447Z,96524.53
2022-09-12T11:05:38.226Z,96517.75
2022-09-12T11:06:51.901Z,96522.31
2022-09-12T11:08:22.530Z,96526.78
2022-09-12T11:09:36.208Z,96516.13
2022-09-12T11:11:04.151Z,96519.13
2022-09-12T11:12:08.433Z,96514.53
2022-09-12T11:13:19.013Z,96520.84
2022-09-12T11:14:38.572Z,96517.56
2022-09-12T11:16:06.692Z,96528.50
2022-09-12T11:17:36.296Z,96520.50
2022-09-12T11:18:48.795Z,96511.25
2022-09-12T11:20:02.402Z,96519.63
2022-09-12T11:21:24.704Z,96518.81
2022-09-12T11:22:47.956Z,96513.91
2022-09-12T11:24:14.416Z,96509.44
2022-09-12T11:25:22.373Z,96501.25
2022-09-12T11:26:34.750Z,96502.09
2022-09-12T11:27:45.350Z,96497.31
2022-09-12T11:29:25.980Z,96506.88
2022-09-12T11:30:38.088Z,96506.88
2022-09-12T11:32:05.932Z,96501.56
2022-09-12T11:33:28.539Z,96505.06
2022-09-12T11:34:58.270Z,96505.03
2022-09-12T11:36:05.017Z,96501.53
2022-09-12T11:37:24.491Z,96500.13
2022-09-12T11:38:35.337Z,96497.31
2022-09-12T11:39:43.422Z,96502.88
2022-09-12T11:40:56.005Z,96500.81
2022-09-12T11:42:02.748Z,96503.00
2022-09-12T11:43:39.810Z,96502.69
2022-09-12T11:44:49.039Z,96503.13
2022-09-12T11:45:51.942Z,96497.91
2022-09-12T11:46:53.502Z,96489.78
2022-09-12T11:48:00.351Z,96487.75
2022-09-12T11:49:13.977Z,96495.63
2022-09-12T11:50:26.136Z,96489.13
2022-09-12T11:51:40.352Z,96484.81
2022-09-12T11:52:41.869Z,96503.78
2022-09-12T11:53:46.947Z,96497.75
2022-09-12T11:55:17.353Z,96501.16
2022-09-12T11:56:18.958Z,96502.19
2022-09-12T11:57:35.750Z,96505.88
2022-09-12T11:58:40.671Z,96501.88
2022-09-12T12:00:19.438Z,96505.16
2022-09-12T12:01:26.455Z,96497.97
2022-09-12T12:02:30.544Z,96491.53
2022-09-12T12:03:39.262Z,96493.28
2022-09-12T12:05:16.415Z,96489.41
2022-09-12T12:06:19.773Z,96495.78
2022-09-12T12:07:21.447Z,96494.94
2022-09-12T12:08:25.019Z,96495.63
2022-09-12T12:09:26.597Z,96493.28
2022-09-12T12:10:39.359Z,96490.19
2022-09-12T12:11:47.527Z,96497.78
2022-09-12T12:12:50.466Z,96497.63
2022-09-12T12:14:00.189Z,96487.53
2022-09-12T12:15:02.390Z,96495.38
2022-09-12T12:16:14.516Z,96498.38
2022-09-12T12:17:19.590Z,96499.56
2022-09-12T12:18:29.506Z,96506.09
2022-09-12T12:19:36.956Z,96497.31
2022-09-12T12:20:38.710Z,96498.44
2022-09-12T12:21:43.945Z,96490.94
2022-09-12T12:22:55.807Z,96487.94
2022-09-12T12:24:10.720Z,96486.19
2022-09-12T12:25:12.502Z,96493.28
2022-09-12T12:26:42.798Z,96483.25
2022-09-12T12:27:44.251Z,96486.66
2022-09-12T12:28:50.560Z,96492.75
2022-09-12T12:29:52.125Z,96481.75
2022-09-12T12:30:54.961Z,96490.38
2022-09-12T12:31:59.490Z,96476.50
2022-09-12T12:33:13.258Z,96499.16
2022-09-12T12:34:27.253Z,96493.38
2022-09-12T12:35:41.673Z,96492.78
2022-09-12T12:36:43.400Z,96493.28
2022-09-12T12:37:51.981Z,96493.19
2022-09-12T12:38:53.748Z,96482.19
2022-09-12T12:40:09.674Z,96488.38
2022-09-12T12:41:17.385Z,96478.84
2022-09-12T12:42:31.094Z,96480.41
2022-09-12T12:43:32.688Z,96481.53
2022-09-12T12:44:47.297Z,96467.88
2022-09-12T12:45:58.747Z,96472.75
2022-09-12T12:47:35.803Z,96481.38
2022-09-12T12:49:16.428Z,96474.97
2022-09-12T12:50:20.734Z,96475.44
2022-09-12T12:51:27.724Z,96478.63
2022-09-12T12:52:45.230Z,96476.66
2022-09-12T12:53:47.337Z,96473.97
2022-09-12T12:54:52.733Z,96473.56
2022-09-12T12:55:56.475Z,96475.63
2022-09-12T12:57:27.176Z,96474.41
2022-09-12T12:58:39.566Z,96482.53
2022-09-12T13:00:06.892Z,96470.06
2022-09-12T13:01:20.726Z,96460.66
2022-09-12T13:02:39.769Z,96473.84
2022-09-12T13:03:46.098Z,96472.09
2022-09-12T13:04:49.802Z,96471.84
2022-09-12T13:05:57.565Z,96471.66
2022-09-12T13:07:08.350Z,96463.88
2022-09-12T13:08:28.065Z,96471.69
2022-09-12T13:09:52.924Z,96460.78
2022-09-12T13:11:07.552Z,96464.91
2022-09-12T13:12:12.800Z,96465.84